Time;durP1;ratioP1;P1;durP2;ratioP2;P2;SDS_P1;SDS_P2;PMS_P1;PMS_P2;Temp;Humidity;BMP_temperature;BMP_pressure;BME280_temperature;BME280_humidity;BME280_pressure;Samples;Min_cycle;Max_cycle;Signal;HPM_P1;HPM_P2
2023/01/12 00:00:38;;;;;;;3.33;2.00;;;;;;;;;;4920672;29;20047;-72
2023/01/12 00:03:05;;;;;;;8.50;2.17;;;;;;;;;;4902620;29;20047;-72
2023/01/12 00:05:35;;;;;;;3.47;2.50;;;;;;;;;;4918159;29;20071;-72
2023/01/12 00:08:06;;;;;;;5.57;2.37;;;;;;;;;;4933704;29;20697;-73
2023/01/12 00:10:44;;;;;;;4.07;2.37;;;;;;;;;;4918319;29;20046;-72
2023/01/12 00:13:17;;;;;;;;;;;;;;;;;;4903183;29;20274;-73
2023/01/12 00:18:51;;;;;;;8.50;2.43;;;;;;;;;;4933887;29;20186;-73
2023/01/12 00:21:25;;;;;;;6.63;2.28;;;;;;;;;;4935220;29;20048;-72
2023/01/12 00:23:55;;;;;;;5.07;2.43;;;;;;;;;;4918433;29;20055;-73
2023/01/12 00:26:28;;;;;;;3.50;2.03;;;;;;;;;;4933555;29;20059;-72
2023/01/12 00:29:08;;;;;;;4.97;2.10;;;;;;;;;;4917642;29;20486;-73
2023/01/12 00:31:39;;;;;;;3.27;2.40;;;;;;;;;;4933741;29;20142;-73
2023/01/12 00:34:11;;;;;;;3.13;2.20;;;;;;;;;;4933705;29;20036;-73
2023/01/12 00:36:42;;;;;;;1.80;1.70;;;;;;;;;;4933744;29;20394;-73
2023/01/12 00:39:10;;;;;;;3.17;1.73;;;;;;;;;;4918489;29;20048;-73
2023/01/12 00:47:20;;;;;;;4.20;2.33;;;;;;;;;;4933501;29;20090;-73
2023/01/12 00:49:54;;;;;;;3.53;2.40;;;;;;;;;;4933835;29;20031;-73
2023/01/12 00:52:28;;;;;;;2.10;1.77;;;;;;;;;;4933860;29;20035;-72
2023/01/12 00:54:58;;;;;;;2.10;1.90;;;;;;;;;;4937362;29;20055;-72
2023/01/12 00:57:25;;;;;;;3.83;2.13;;;;;;;;;;4921669;29;20048;-71
2023/01/12 00:59:53;;;;;;;6.67;2.23;;;;;;;;;;4937427;29;20389;-72
2023/01/12 01:02:19;;;;;;;4.00;2.07;;;;;;;;;;4921517;29;20036;-72
2023/01/12 01:04:45;;;;;;;3.00;1.80;;;;;;;;;;4905890;29;20126;-72
2023/01/12 01:07:12;;;;;;;3.33;2.00;;;;;;;;;;4921870;29;20475;-72
2023/01/12 01:09:38;;;;;;;4.23;1.90;;;;;;;;;;4920965;29;20107;-72
2023/01/12 01:12:05;;;;;;;3.10;2.03;;;;;;;;;;4904745;29;20106;-72
2023/01/12 01:14:32;;;;;;;2.43;1.87;;;;;;;;;;4920976;29;20047;-72
2023/01/12 01:17:02;;;;;;;3.10;2.17;;;;;;;;;;4906444;29;20051;-72
2023/01/12 01:19:31;;;;;;;2.40;1.80;;;;;;;;;;4921002;29;20443;-72
2023/01/12 01:21:59;;;;;;;2.67;1.90;;;;;;;;;;4904838;29;20090;-73
2023/01/12 01:24:26;;;;;;;5.83;2.63;;;;;;;;;;4936926;29;20036;-72
2023/01/12 01:26:53;;;;;;;2.33;2.13;;;;;;;;;;4905065;29;20471;-72
2023/01/12 01:29:22;;;;;;;4.40;2.07;;;;;;;;;;4937460;29;20055;-72
2023/01/12 01:31:50;;;;;;;3.17;1.93;;;;;;;;;;4921244;29;20039;-72
2023/01/12 01:34:17;;;;;;;4.77;2.60;;;;;;;;;;4905416;29;20079;-72
2023/01/12 01:36:50;;;;;;;3.60;2.20;;;;;;;;;;4920801;29;20134;-73
2023/01/12 01:39:18;;;;;;;5.63;2.83;;;;;;;;;;4936541;29;20047;-72
2023/01/12 01:41:47;;;;;;;3.53;2.33;;;;;;;;;;4936340;29;20039;-72
2023/01/12 01:44:29;;;;;;;3.50;2.20;;;;;;;;;;4929454;29;20082;-73
2023/01/12 01:47:10;;;;;;;3.73;2.10;;;;;;;;;;4924261;29;20412;-73
2023/01/12 01:49:49;;;;;;;3.47;2.37;;;;;;;;;;4955622;29;20047;-73
2023/01/12 01:52:27;;;;;;;3.77;2.13;;;;;;;;;;4926068;29;20467;-72
2023/01/12 01:55:04;;;;;;;5.07;2.20;;;;;;;;;;4920650;29;20390;-73
2023/01/12 01:57:41;;;;;;;4.07;2.23;;;;;;;;;;4951982;29;20044;-73
2023/01/12 02:00:09;;;;;;;2.80;2.10;;;;;;;;;;4920436;29;20048;-73
2023/01/12 02:02:41;;;;;;;3.87;2.10;;;;;;;;;;4920424;29;20110;-73
2023/01/12 02:05:14;;;;;;;4.07;2.40;;;;;;;;;;4935627;29;20083;-73
2023/01/12 02:07:43;;;;;;;3.53;2.30;;;;;;;;;;4936018;29;20051;-73
2023/01/12 02:10:17;;;;;;;3.73;2.50;;;;;;;;;;4919794;29;20035;-73
2023/01/12 02:18:29;;;;;;;3.20;2.10;;;;;;;;;;4936101;29;20106;-72
2023/01/12 02:21:02;;;;;;;7.30;2.50;;;;;;;;;;4920372;29;20047;-71
2023/01/12 02:23:33;;;;;;;3.50;2.10;;;;;;;;;;4904747;29;20035;-72
2023/01/12 02:26:12;;;;;;;3.17;2.00;;;;;;;;;;4920080;29;20040;-72
2023/01/12 02:28:46;;;;;;;3.33;2.00;;;;;;;;;;4903607;29;20197;-73
2023/01/12 02:31:27;;;;;;;2.33;1.80;;;;;;;;;;4935542;29;20044;-72
2023/01/12 02:34:00;;;;;;;6.60;2.37;;;;;;;;;;4919946;29;20043;-73
2023/01/12 02:36:44;;;;;;;3.83;2.10;;;;;;;;;;4900894;29;20036;-72
2023/01/12 02:39:19;;;;;;;3.60;1.88;;;;;;;;;;4916399;29;20375;-73
2023/01/12 02:45:16;;;;;;;3.87;2.30;;;;;;;;;;4916597;29;20075;-73
2023/01/12 02:47:45;;;;;;;;;;;;;;;;;;4923096;29;20108;-72
2023/01/12 02:50:44;;;;;;;3.03;1.90;;;;;;;;;;4916155;29;19915;-72
2023/01/12 02:53:26;;;;;;;3.60;2.07;;;;;;;;;;4915950;29;20064;-73
2023/01/12 02:55:54;;;;;;;4.97;2.10;;;;;;;;;;4916035;29;20044;-72
2023/01/12 02:58:24;;;;;;;4.40;2.40;;;;;;;;;;4931399;29;20429;-73
2023/01/12 03:00:53;;;;;;;4.40;2.27;;;;;;;;;;4915810;29;20352;-72
2023/01/12 03:03:25;;;;;;;4.13;2.30;;;;;;;;;;4916041;29;20047;-72
2023/01/12 03:05:59;;;;;;;2.20;1.83;;;;;;;;;;4930922;29;20040;-72
2023/01/12 03:08:32;;;;;;;3.40;2.03;;;;;;;;;;4917049;29;20055;-73
2023/01/12 03:11:13;;;;;;;5.33;2.40;;;;;;;;;;4916051;29;20052;-72
2023/01/12 03:13:48;;;;;;;3.73;2.40;;;;;;;;;;4898004;29;20052;-73
2023/01/12 03:16:25;;;;;;;4.07;2.60;;;;;;;;;;4911149;29;20147;-74
2023/01/12 03:19:08;;;;;;;3.60;2.27;;;;;;;;;;4913479;29;20403;-72
2023/01/12 03:21:40;;;;;;;3.73;1.97;;;;;;;;;;4928302;29;20040;-73
2023/01/12 03:24:09;;;;;;;2.83;2.00;;;;;;;;;;4915040;29;20050;-72
2023/01/12 03:26:38;;;;;;;3.10;2.23;;;;;;;;;;4915583;29;20052;-73
2023/01/12 03:29:09;;;;;;;3.47;2.30;;;;;;;;;;4884158;29;20075;-72
2023/01/12 03:31:35;;;;;;;;;;;;;;;;;;4900133;29;20107;-67
2023/01/12 03:34:01;;;;;;;4.13;2.37;;;;;;;;;;4915430;29;19970;-65
2023/01/12 03:36:36;;;;;;;4.30;2.43;;;;;;;;;;4899433;29;20378;-65
2023/01/12 03:39:12;;;;;;;3.63;2.10;;;;;;;;;;4915627;29;20157;-66
2023/01/12 03:41:57;;;;;;;3.47;2.63;;;;;;;;;;4899710;29;20067;-66
2023/01/12 03:44:30;;;;;;;2.83;2.30;;;;;;;;;;4915205;29;20492;-72
2023/01/12 03:47:00;;;;;;;6.83;2.30;;;;;;;;;;4915240;29;20467;-71
2023/01/12 03:49:32;;;;;;;4.05;2.58;;;;;;;;;;4915124;29;20048;-72
2023/01/12 03:52:01;;;;;;;6.40;2.57;;;;;;;;;;4899562;29;20047;-71
2023/01/12 03:54:28;;;;;;;3.27;2.20;;;;;;;;;;4930866;29;20134;-73
2023/01/12 03:56:56;;;;;;;3.10;2.17;;;;;;;;;;4930905;29;20458;-72
2023/01/12 03:59:26;;;;;;;3.92;2.13;;;;;;;;;;4914944;29;20467;-72
2023/01/12 04:01:53;;;;;;;5.57;2.90;;;;;;;;;;4899438;29;20382;-73
2023/01/12 04:04:22;;;;;;;5.13;2.50;;;;;;;;;;4915393;29;20059;-74
2023/01/12 04:06:53;;;;;;;2.20;1.90;;;;;;;;;;4914818;29;20397;-72
2023/01/12 04:09:25;;;;;;;4.60;2.53;;;;;;;;;;4915909;29;20044;-72
2023/01/12 04:12:09;;;;;;;4.90;2.93;;;;;;;;;;4897484;29;20479;-73
2023/01/12 04:14:40;;;;;;;3.77;2.30;;;;;;;;;;4912694;29;20046;-75
2023/01/12 04:17:34;;;;;;;4.82;2.80;;;;;;;;;;4928348;29;20067;-75
2023/01/12 04:20:05;;;;;;;3.63;2.30;;;;;;;;;;4912676;29;20044;-74
2023/01/12 04:23:01;;;;;;;3.33;2.33;;;;;;;;;;4897625;29;20095;-74
2023/01/12 04:25:29;;;;;;;3.73;2.13;;;;;;;;;;4916846;29;20048;-74
2023/01/12 04:28:01;;;;;;;4.57;2.37;;;;;;;;;;4935890;29;20122;-76
2023/01/12 04:30:43;;;;;;;4.10;2.57;;;;;;;;;;4974780;28;20110;-74
2023/01/12 04:33:18;;;;;;;;;;;;;;;;;;4960725;28;20138;-73
2023/01/12 04:36:17;;;;;;;3.43;2.37;;;;;;;;;;4977421;28;19914;-76
2023/01/12 04:38:54;;;;;;;4.77;3.07;;;;;;;;;;4959791;28;20055;-75
2023/01/12 04:41:32;;;;;;;24.23;2.50;;;;;;;;;;4975527;28;20046;-73
2023/01/12 04:43:57;;;;;;;3.27;2.20;;;;;;;;;;4928688;28;20070;-74
2023/01/12 04:46:24;;;;;;;3.93;2.40;;;;;;;;;;4912615;28;20069;-74
2023/01/12 04:48:51;;;;;;;2.73;2.17;;;;;;;;;;4942942;28;20086;-74
2023/01/12 04:51:16;;;;;;;5.47;2.70;;;;;;;;;;4941399;28;20066;-74
2023/01/12 04:53:47;;;;;;;4.40;2.60;;;;;;;;;;4926109;28;20121;-74
2023/01/12 04:56:13;;;;;;;5.40;2.73;;;;;;;;;;4942038;28;20073;-74
2023/01/12 04:58:41;;;;;;;5.10;2.67;;;;;;;;;;4926490;28;20056;-74
2023/01/12 05:01:07;;;;;;;6.13;3.03;;;;;;;;;;4926396;28;20042;-74
2023/01/12 05:03:33;;;;;;;5.43;2.83;;;;;;;;;;4926458;28;20030;-74
2023/01/12 05:06:00;;;;;;;7.70;2.40;;;;;;;;;;4943474;28;20448;-74
2023/01/12 05:11:10;;;;;;;5.73;3.00;;;;;;;;;;4943367;28;20556;-74
2023/01/12 05:13:36;;;;;;;9.43;2.93;;;;;;;;;;4927844;28;20129;-74
2023/01/12 05:16:09;;;;;;;8.17;2.47;;;;;;;;;;4943365;28;20130;-73
2023/01/12 05:18:35;;;;;;;4.07;2.60;;;;;;;;;;4927637;28;20609;-73
2023/01/12 05:21:01;;;;;;;4.87;2.50;;;;;;;;;;4959342;28;20062;-74
2023/01/12 05:23:27;;;;;;;3.60;2.80;;;;;;;;;;4927671;28;20081;-73
2023/01/12 05:25:52;;;;;;;4.53;2.63;;;;;;;;;;4927396;28;20031;-73
2023/01/12 05:28:18;;;;;;;3.47;2.33;;;;;;;;;;4927019;28;20504;-73
2023/01/12 05:30:44;;;;;;;3.53;2.40;;;;;;;;;;4927438;28;20066;-73
2023/01/12 05:33:15;;;;;;;5.63;2.40;;;;;;;;;;4943131;28;20473;-73
2023/01/12 05:35:41;;;;;;;3.67;2.50;;;;;;;;;;4927438;28;20046;-73
2023/01/12 05:38:07;;;;;;;4.40;2.80;;;;;;;;;;4927194;28;20384;-74
2023/01/12 05:40:32;;;;;;;3.83;2.70;;;;;;;;;;4941940;28;20492;-73
2023/01/12 05:45:42;;;;;;;5.23;2.93;;;;;;;;;;4942750;28;20031;-74
2023/01/12 05:48:08;;;;;;;4.03;2.60;;;;;;;;;;4927251;28;20046;-74
2023/01/12 05:50:34;;;;;;;3.67;2.67;;;;;;;;;;4942830;28;20110;-73
2023/01/12 05:53:07;;;;;;;6.20;3.00;;;;;;;;;;4943657;28;20043;-73
2023/01/12 05:55:33;;;;;;;5.17;3.00;;;;;;;;;;4926854;28;20514;-73
2023/01/12 05:57:58;;;;;;;7.63;2.73;;;;;;;;;;4926883;28;20035;-73
2023/01/12 06:00:24;;;;;;;3.60;2.80;;;;;;;;;;4926651;28;20039;-73
2023/01/12 06:02:50;;;;;;;4.63;2.60;;;;;;;;;;4926705;28;20026;-72
2023/01/12 06:05:16;;;;;;;9.17;2.90;;;;;;;;;;4942334;28;20478;-74
2023/01/12 06:07:41;;;;;;;6.13;2.60;;;;;;;;;;4942696;28;20519;-72
2023/01/12 06:10:08;;;;;;;5.33;2.77;;;;;;;;;;4942459;28;20035;-73
2023/01/12 06:15:18;;;;;;;5.93;2.97;;;;;;;;;;4942365;28;20133;-74
2023/01/12 06:17:43;;;;;;;4.43;3.30;;;;;;;;;;4942700;28;20165;-73
2023/01/12 06:20:13;;;;;;;5.37;2.97;;;;;;;;;;4942205;28;20473;-73
2023/01/12 06:22:39;;;;;;;2.92;2.40;;;;;;;;;;4926888;28;20035;-73
2023/01/12 06:25:05;;;;;;;3.63;2.57;;;;;;;;;;4942205;28;20043;-73
2023/01/12 06:27:34;;;;;;;6.80;3.17;;;;;;;;;;4926398;28;20042;-73
2023/01/12 06:29:59;;;;;;;9.80;4.03;;;;;;;;;;4941969;28;20152;-73
2023/01/12 06:32:27;;;;;;;5.93;3.00;;;;;;;;;;4926240;28;20062;-73
2023/01/12 06:34:53;;;;;;;7.77;3.83;;;;;;;;;;4941873;28;20054;-73
2023/01/12 06:37:18;;;;;;;4.93;3.17;;;;;;;;;;4941865;28;20278;-73
2023/01/12 06:39:44;;;;;;;3.00;2.30;;;;;;;;;;4926094;28;20035;-74
2023/01/12 06:42:28;;;;;;;4.93;3.10;;;;;;;;;;4926091;28;20031;-73
2023/01/12 06:44:54;;;;;;;6.03;3.43;;;;;;;;;;4926041;28;20047;-73
2023/01/12 06:47:20;;;;;;;4.00;2.90;;;;;;;;;;4925534;28;20078;-73
2023/01/12 06:49:46;;;;;;;7.97;3.23;;;;;;;;;;4926136;28;20137;-75
2023/01/12 06:52:12;;;;;;;6.97;3.10;;;;;;;;;;4941762;28;20190;-73
2023/01/12 06:54:38;;;;;;;5.50;3.00;;;;;;;;;;4941479;28;20074;-73
2023/01/12 06:57:04;;;;;;;5.10;2.97;;;;;;;;;;4909966;28;20045;-73
2023/01/12 06:59:29;;;;;;;6.37;3.40;;;;;;;;;;4941538;28;20046;-73
2023/01/12 07:01:55;;;;;;;6.27;3.63;;;;;;;;;;4941109;28;20141;-73
2023/01/12 07:04:21;;;;;;;8.70;3.43;;;;;;;;;;4925720;28;20066;-74
2023/01/12 07:06:47;;;;;;;6.13;3.10;;;;;;;;;;4941346;28;20093;-73
2023/01/12 07:09:13;;;;;;;3.90;2.73;;;;;;;;;;4941490;28;20055;-73
2023/01/12 07:11:38;;;;;;;7.27;3.23;;;;;;;;;;4910197;28;20038;-73
2023/01/12 07:14:04;;;;;;;7.80;3.17;;;;;;;;;;4921093;28;20421;-75
2023/01/12 07:16:32;;;;;;;3.80;2.90;;;;;;;;;;4924267;28;20038;-74
2023/01/12 07:18:57;;;;;;;5.60;2.57;;;;;;;;;;4939929;28;20039;-72
2023/01/12 07:21:23;;;;;;;6.17;3.20;;;;;;;;;;4921234;28;20046;-73
2023/01/12 07:23:49;;;;;;;8.93;3.30;;;;;;;;;;4933117;28;20035;-72
2023/01/12 07:26:15;;;;;;;5.03;2.90;;;;;;;;;;4925464;28;20043;-72
2023/01/12 07:28:41;;;;;;;6.40;3.00;;;;;;;;;;4924961;28;20495;-72
2023/01/12 07:31:08;;;;;;;9.00;3.17;;;;;;;;;;4925108;28;20393;-73
2023/01/12 07:33:35;;;;;;;8.80;3.70;;;;;;;;;;4924989;28;20053;-74
2023/01/12 07:36:01;;;;;;;5.33;3.23;;;;;;;;;;4924954;28;20038;-73
2023/01/12 07:38:28;;;;;;;9.07;3.63;;;;;;;;;;4924914;28;20057;-73
2023/01/12 07:40:53;;;;;;;6.97;3.37;;;;;;;;;;4924971;28;20118;-72
2023/01/12 07:43:19;;;;;;;10.40;3.20;;;;;;;;;;4925360;28;20467;-73
2023/01/12 07:45:45;;;;;;;6.47;3.37;;;;;;;;;;4925118;28;20035;-73
2023/01/12 07:48:14;;;;;;;3.87;2.90;;;;;;;;;;4924857;28;20113;-74
2023/01/12 07:50:40;;;;;;;11.63;3.60;;;;;;;;;;4940591;28;20069;-74
2023/01/12 07:53:06;;;;;;;8.73;4.10;;;;;;;;;;4924821;28;20062;-73
2023/01/12 07:55:31;;;;;;;7.83;3.77;;;;;;;;;;4940471;28;20039;-73
2023/01/12 07:58:02;;;;;;;9.07;3.67;;;;;;;;;;4924860;28;20073;-72
2023/01/12 08:00:29;;;;;;;8.13;3.70;;;;;;;;;;4925059;28;20580;-73
2023/01/12 08:03:01;;;;;;;10.47;4.30;;;;;;;;;;4924370;28;20050;-74
2023/01/12 08:05:28;;;;;;;6.40;3.57;;;;;;;;;;4924920;28;20039;-72
2023/01/12 08:07:54;;;;;;;8.63;4.27;;;;;;;;;;4956413;28;20049;-73
2023/01/12 08:10:20;;;;;;;7.70;4.07;;;;;;;;;;4924740;28;20039;-73
2023/01/12 08:12:45;;;;;;;8.00;4.23;;;;;;;;;;4924905;28;20043;-70
2023/01/12 08:15:11;;;;;;;17.63;4.00;;;;;;;;;;4924467;28;20038;-71
2023/01/12 08:17:45;;;;;;;14.60;4.83;;;;;;;;;;4956515;28;20050;-74
2023/01/12 08:20:17;;;;;;;10.03;4.13;;;;;;;;;;4940275;28;20088;-73
2023/01/12 08:22:44;;;;;;;11.87;4.00;;;;;;;;;;4924554;28;20039;-73
2023/01/12 08:25:29;;;;;;;7.77;4.10;;;;;;;;;;4924346;28;20042;-72
2023/01/12 08:27:56;;;;;;;7.93;4.30;;;;;;;;;;4924397;28;20485;-73
2023/01/12 08:30:23;;;;;;;11.50;3.67;;;;;;;;;;4924445;28;20051;-74
2023/01/12 08:32:49;;;;;;;8.50;3.80;;;;;;;;;;4922888;28;20488;-76
2023/01/12 08:35:18;;;;;;;11.43;3.73;;;;;;;;;;4921811;29;20043;-74
2023/01/12 08:37:44;;;;;;;13.70;3.67;;;;;;;;;;4919577;29;20058;-74
2023/01/12 08:40:10;;;;;;;13.10;3.43;;;;;;;;;;4921291;29;20125;-73
2023/01/12 08:42:36;;;;;;;12.27;3.90;;;;;;;;;;4938824;28;20079;-74
2023/01/12 08:45:06;;;;;;;10.93;3.90;;;;;;;;;;4939083;28;20078;-74
2023/01/12 08:47:34;;;;;;;18.08;6.18;;;;;;;;;;4971136;28;20035;-72
2023/01/12 08:50:03;;;;;;;13.20;4.00;;;;;;;;;;4956322;28;20104;-73
2023/01/12 08:52:31;;;;;;;9.10;4.10;;;;;;;;;;4953641;28;20042;-72
2023/01/12 08:54:59;;;;;;;9.97;4.07;;;;;;;;;;4939782;28;20042;-72
2023/01/12 08:57:25;;;;;;;11.93;4.23;;;;;;;;;;4956083;28;20147;-73
2023/01/12 08:59:51;;;;;;;10.90;3.90;;;;;;;;;;4940197;28;20133;-73
2023/01/12 09:02:17;;;;;;;14.57;4.47;;;;;;;;;;4940466;28;20042;-72
2023/01/12 09:04:43;;;;;;;14.10;5.20;;;;;;;;;;4940023;28;20094;-74
2023/01/12 09:07:09;;;;;;;7.70;3.33;;;;;;;;;;4939998;28;20031;-75
2023/01/12 09:09:36;;;;;;;12.77;4.30;;;;;;;;;;4940071;28;20496;-75
2023/01/12 09:12:01;;;;;;;10.97;3.60;;;;;;;;;;4940044;28;20035;-75
2023/01/12 09:14:28;;;;;;;12.77;4.60;;;;;;;;;;4940353;28;20041;-75
2023/01/12 09:16:56;;;;;;;21.10;4.87;;;;;;;;;;4943595;28;20059;-75
2023/01/12 09:19:22;;;;;;;12.67;4.37;;;;;;;;;;4943754;28;20039;-75
2023/01/12 09:21:48;;;;;;;16.60;4.03;;;;;;;;;;4943255;28;20045;-75
2023/01/12 09:24:14;;;;;;;12.87;4.50;;;;;;;;;;4943482;28;20424;-75
2023/01/12 09:26:40;;;;;;;12.83;4.47;;;;;;;;;;4959295;28;20039;-75
2023/01/12 09:29:06;;;;;;;15.43;4.50;;;;;;;;;;4948509;28;20113;-76
2023/01/12 09:31:33;;;;;;;7.87;3.90;;;;;;;;;;4943486;28;20046;-77
2023/01/12 09:34:02;;;;;;;14.70;4.60;;;;;;;;;;4959012;28;20117;-77
2023/01/12 09:36:29;;;;;;;13.20;4.00;;;;;;;;;;4959373;28;20049;-76
2023/01/12 09:38:57;;;;;;;12.20;4.00;;;;;;;;;;4958995;28;20047;-77
2023/01/12 09:47:18;;;;;;;20.05;5.03;;;;;;;;;;4942973;28;20035;-76
2023/01/12 09:49:43;;;;;;;;;;;;;;;;;;4943314;28;20031;-76
2023/01/12 09:52:18;;;;;;;18.02;4.93;;;;;;;;;;4959016;28;19910;-75
2023/01/12 09:54:46;;;;;;;16.90;4.43;;;;;;;;;;4958629;28;20426;-76
2023/01/12 09:57:33;;;;;;;14.90;5.25;;;;;;;;;;4958679;28;20041;-75
2023/01/12 10:00:10;;;;;;;18.65;4.85;;;;;;;;;;4942736;28;20121;-75
2023/01/12 10:02:41;;;;;;;11.00;5.43;;;;;;;;;;4958072;28;20093;-75
2023/01/12 10:05:12;;;;;;;12.30;4.28;;;;;;;;;;4958505;28;20035;-74
2023/01/12 10:07:38;;;;;;;14.70;4.15;;;;;;;;;;4942567;28;20070;-74
2023/01/12 10:10:04;;;;;;;17.98;4.45;;;;;;;;;;4958348;28;20093;-74
2023/01/12 10:12:40;;;;;;;23.02;4.10;;;;;;;;;;4958408;28;20058;-75
2023/01/12 10:15:21;;;;;;;19.02;3.92;;;;;;;;;;4975272;28;20125;-75
2023/01/12 10:17:53;;;;;;;22.13;5.05;;;;;;;;;;4963565;28;20031;-74
2023/01/12 10:20:38;;;;;;;15.07;3.95;;;;;;;;;;4939362;29;20046;-74
2023/01/12 10:23:09;;;;;;;15.43;4.10;;;;;;;;;;4938830;29;20058;-76
2023/01/12 10:25:48;;;;;;;14.90;3.70;;;;;;;;;;4922612;29;20138;-74
2023/01/12 10:28:23;;;;;;;17.42;3.60;;;;;;;;;;4930562;28;20043;-73
2023/01/12 10:30:50;;;;;;;13.93;4.22;;;;;;;;;;4925756;28;20113;-74
2023/01/12 10:33:21;;;;;;;15.88;5.05;;;;;;;;;;4942384;28;20466;-74
2023/01/12 10:36:09;;;;;;;17.77;4.15;;;;;;;;;;4957834;28;20492;-75
2023/01/12 10:38:56;;;;;;;12.57;3.70;;;;;;;;;;4926039;28;20150;-74
2023/01/12 10:41:30;;;;;;;11.10;4.00;;;;;;;;;;4918612;29;20047;-75
2023/01/12 10:44:17;;;;;;;16.45;3.90;;;;;;;;;;4934731;29;20055;-75
2023/01/12 10:47:08;;;;;;;15.50;4.47;;;;;;;;;;4903073;29;20086;-73
2023/01/12 10:49:37;;;;;;;11.48;4.28;;;;;;;;;;4887286;29;20052;-74
2023/01/12 10:52:09;;;;;;;14.80;4.00;;;;;;;;;;4918190;29;20035;-74
2023/01/12 10:54:40;;;;;;;15.50;3.83;;;;;;;;;;4918672;29;20050;-74
2023/01/12 10:57:15;;;;;;;11.20;4.05;;;;;;;;;;4918009;29;20122;-73
2023/01/12 10:59:50;;;;;;;9.23;3.42;;;;;;;;;;4902286;29;20150;-76
2023/01/12 11:02:19;;;;;;;15.93;3.60;;;;;;;;;;4918139;29;20470;-74
2023/01/12 11:04:51;;;;;;;12.27;3.83;;;;;;;;;;4903648;28;20051;-75
2023/01/12 11:07:30;;;;;;;15.18;3.50;;;;;;;;;;4941254;28;20034;-75
2023/01/12 11:10:16;;;;;;;9.77;3.72;;;;;;;;;;4958056;28;20455;-71
2023/01/12 11:12:43;;;;;;;13.65;3.60;;;;;;;;;;4940906;28;20393;-69
2023/01/12 11:15:09;;;;;;;13.82;3.97;;;;;;;;;;4940728;28;20034;-69
2023/01/12 11:17:48;;;;;;;11.60;3.42;;;;;;;;;;4925159;28;20489;-68
2023/01/12 11:20:32;;;;;;;11.52;3.47;;;;;;;;;;4925094;28;20027;-68
2023/01/12 11:23:02;;;;;;;16.17;3.80;;;;;;;;;;4922964;28;20047;-68
2023/01/12 11:25:30;;;;;;;13.65;3.60;;;;;;;;;;4939912;28;20093;-66
2023/01/12 11:28:00;;;;;;;12.65;4.28;;;;;;;;;;4920909;28;20049;-70
2023/01/12 11:31:07;;;;;;;15.63;4.22;;;;;;;;;;4939614;28;20043;-69
2023/01/12 11:33:45;;;;;;;14.07;4.88;;;;;;;;;;4883084;29;20123;-74
2023/01/12 11:36:15;;;;;;;16.90;5.05;;;;;;;;;;4879999;29;20036;-74
2023/01/12 11:38:49;;;;;;;13.70;4.97;;;;;;;;;;4928365;28;20146;-73
2023/01/12 11:41:24;;;;;;;13.32;4.90;;;;;;;;;;4924849;28;20493;-74
2023/01/12 11:43:54;;;;;;;18.73;5.60;;;;;;;;;;4940800;28;20145;-77
2023/01/12 11:46:43;;;;;;;18.15;5.30;;;;;;;;;;4925589;28;20034;-74
2023/01/12 11:49:16;;;;;;;14.98;4.80;;;;;;;;;;4918321;28;20051;-74
2023/01/12 11:51:47;;;;;;;14.27;4.35;;;;;;;;;;4940106;28;20038;-74
2023/01/12 11:54:14;;;;;;;15.68;4.38;;;;;;;;;;4923044;28;20050;-76
2023/01/12 11:56:49;;;;;;;16.30;5.10;;;;;;;;;;4924753;28;20065;-74
2023/01/12 11:59:20;;;;;;;13.20;4.80;;;;;;;;;;4923207;28;20137;-74
2023/01/12 12:02:05;;;;;;;13.43;4.40;;;;;;;;;;4924060;28;20038;-73
2023/01/12 12:04:34;;;;;;;11.23;4.20;;;;;;;;;;4940277;28;20039;-75
2023/01/12 12:07:11;;;;;;;14.13;4.00;;;;;;;;;;4940616;28;20115;-74
2023/01/12 12:09:52;;;;;;;14.57;4.43;;;;;;;;;;4959502;28;20031;-74
2023/01/12 12:12:30;;;;;;;13.30;4.33;;;;;;;;;;4958818;28;20053;-76
2023/01/12 12:14:59;;;;;;;14.57;4.53;;;;;;;;;;4943873;28;20454;-78
2023/01/12 12:17:25;;;;;;;15.90;4.93;;;;;;;;;;4924655;28;20039;-78
2023/01/12 12:20:13;;;;;;;9.17;3.63;;;;;;;;;;4924408;28;20162;-77
2023/01/12 12:23:00;;;;;;;13.95;3.67;;;;;;;;;;4925431;28;20045;-75
2023/01/12 12:25:35;;;;;;;13.10;4.93;;;;;;;;;;4940495;28;20054;-76
2023/01/12 12:28:12;;;;;;;12.53;4.00;;;;;;;;;;4926876;28;20035;-80
2023/01/12 12:30:54;;;;;;;14.20;3.67;;;;;;;;;;4945430;28;20101;-81
2023/01/12 12:33:44;;;;;;;13.93;3.60;;;;;;;;;;4947250;28;20035;-78
2023/01/12 12:36:59;;;;;;;;;;;;;;;;;;;;;
2023/01/12 12:39:51;;;;;;;13.13;3.70;;;;;;;;;;4938547;28;20716;-80
2023/01/12 12:45:53;;;;;;;12.13;3.63;;;;;;;;;;4953342;28;20137;-73
2023/01/12 12:48:26;;;;;;;6.83;3.40;;;;;;;;;;4915124;28;20130;-72
2023/01/12 12:54:27;;;;;;;8.53;3.13;;;;;;;;;;4882673;29;20048;-74
2023/01/12 12:56:59;;;;;;;18.60;3.83;;;;;;;;;;4935660;29;20035;-72
2023/01/12 12:59:46;;;;;;;5.70;3.60;;;;;;;;;;4932234;28;20045;-73
2023/01/12 13:02:34;;;;;;;13.80;3.73;;;;;;;;;;4927210;28;20135;-74
2023/01/12 13:05:52;;;;;;;;;;;;;;;;;;;;;
2023/01/12 13:09:14;;;;;;;8.33;3.53;;;;;;;;;;4959296;28;20042;-74
2023/01/12 13:12:18;;;;;;;10.10;4.35;;;;;;;;;;4963751;28;20038;-73
2023/01/12 13:18:48;;;;;;;13.60;3.50;;;;;;;;;;4884367;28;20051;-74
2023/01/12 13:25:38;;;;;;;7.33;3.93;;;;;;;;;;4930204;28;20042;-72
2023/01/12 13:36:33;;;;;;;6.97;3.47;;;;;;;;;;4917041;29;20054;-74
2023/01/12 13:39:34;;;;;;;;;;;;;;;;;;;;;
2023/01/12 13:43:21;;;;;;;6.90;3.70;;;;;;;;;;4959495;28;20190;-74
2023/01/12 13:46:03;;;;;;;6.17;3.53;;;;;;;;;;4925265;28;20162;-74
2023/01/12 13:48:59;;;;;;;9.18;3.47;;;;;;;;;;4960668;28;20038;-73
2023/01/12 13:51:44;;;;;;;7.40;3.30;;;;;;;;;;4957870;28;20039;-73
2023/01/12 13:54:11;;;;;;;9.43;3.13;;;;;;;;;;4942584;28;20468;-73
2023/01/12 13:56:51;;;;;;;12.20;3.70;;;;;;;;;;4938069;28;20070;-73
2023/01/12 13:59:17;;;;;;;7.03;3.13;;;;;;;;;;4924842;28;20077;-74
2023/01/12 14:01:54;;;;;;;8.93;3.50;;;;;;;;;;4940107;28;20124;-71
2023/01/12 14:05:09;;;;;;;8.57;3.60;;;;;;;;;;4941263;28;20039;-74
2023/01/12 14:08:02;;;;;;;10.63;3.80;;;;;;;;;;4941002;28;20041;-73
2023/01/12 14:13:56;;;;;;;10.07;4.07;;;;;;;;;;4928277;28;20046;-73
2023/01/12 14:21:25;;;;;;;11.65;3.80;;;;;;;;;;4950872;28;20421;-73
2023/01/12 14:24:37;;;;;;;7.13;3.47;;;;;;;;;;4859349;29;20484;-73
2023/01/12 14:27:56;;;;;;;8.60;3.07;;;;;;;;;;4861512;29;20045;-78
2023/01/12 14:30:26;;;;;;;8.27;3.67;;;;;;;;;;4840420;29;20389;-78
2023/01/12 14:33:00;;;;;;;13.63;4.27;;;;;;;;;;4830748;29;20056;-77
2023/01/12 14:35:42;;;;;;;8.23;3.43;;;;;;;;;;4859561;29;20057;-78
2023/01/12 14:38:34;;;;;;;8.43;2.60;;;;;;;;;;4849193;29;20375;-77
2023/01/12 14:46:23;;;;;;;7.07;3.30;;;;;;;;;;4870693;29;20050;-76
2023/01/12 14:46:50;;;;;;;11.67;3.33;;;;;;;;;;4938610;29;20039;-74
2023/01/12 14:49:22;;;;;;;12.13;3.20;;;;;;;;;;4946247;28;20183;-74
2023/01/12 14:51:54;;;;;;;6.87;3.73;;;;;;;;;;4927047;28;20043;-74
2023/01/12 14:54:27;;;;;;;9.13;4.50;;;;;;;;;;4923056;28;20186;-73
2023/01/12 14:56:57;;;;;;;9.30;3.90;;;;;;;;;;4957757;28;20461;-75
2023/01/12 14:59:34;;;;;;;8.05;3.75;;;;;;;;;;4925645;28;20042;-74
2023/01/12 15:02:12;;;;;;;8.63;3.17;;;;;;;;;;4925873;28;20042;-76
2023/01/12 15:04:57;;;;;;;6.73;3.60;;;;;;;;;;4927237;28;20499;-75
2023/01/12 15:07:40;;;;;;;10.33;3.17;;;;;;;;;;4942618;28;20057;-75
2023/01/12 15:10:14;;;;;;;8.77;3.60;;;;;;;;;;4958103;28;20042;-77
2023/01/12 15:13:14;;;;;;;8.13;3.70;;;;;;;;;;4941200;28;20519;-75
2023/01/12 15:27:32;;;;;;;7.35;3.40;;;;;;;;;;4940663;28;20141;-75
2023/01/12 15:30:12;;;;;;;6.23;4.00;;;;;;;;;;4944738;28;20055;-78
2023/01/12 15:32:41;;;;;;;10.87;4.33;;;;;;;;;;4942671;28;20048;-79
2023/01/12 15:35:34;;;;;;;11.03;3.63;;;;;;;;;;4925926;28;20038;-79
2023/01/12 15:38:05;;;;;;;7.10;3.60;;;;;;;;;;4941862;28;20109;-78
2023/01/12 15:40:35;;;;;;;11.87;3.53;;;;;;;;;;4941354;28;20047;-78
2023/01/12 15:43:03;;;;;;;5.03;3.50;;;;;;;;;;4941017;28;20473;-79
2023/01/12 15:45:36;;;;;;;7.53;3.50;;;;;;;;;;4941263;28;20034;-76
2023/01/12 15:48:02;;;;;;;8.90;3.75;;;;;;;;;;4940438;28;20433;-76
2023/01/12 15:50:28;;;;;;;7.70;3.77;;;;;;;;;;4925016;28;20130;-75
2023/01/12 15:55:55;;;;;;;11.50;3.87;;;;;;;;;;4939762;28;20035;-76
2023/01/12 15:58:24;;;;;;;10.30;3.80;;;;;;;;;;4940889;28;20050;-78
2023/01/12 16:00:55;;;;;;;6.17;3.57;;;;;;;;;;4941260;28;20042;-78
2023/01/12 16:03:22;;;;;;;6.30;3.67;;;;;;;;;;4925076;28;20389;-78
2023/01/12 16:05:50;;;;;;;6.80;3.93;;;;;;;;;;4940341;28;20433;-78
2023/01/12 16:08:16;;;;;;;8.83;4.00;;;;;;;;;;4925683;28;20049;-78
2023/01/12 16:13:41;;;;;;;7.33;4.13;;;;;;;;;;4922606;29;20035;-78
2023/01/12 16:16:13;;;;;;;9.17;3.40;;;;;;;;;;4906096;29;20458;-79
2023/01/12 16:18:46;;;;;;;9.03;4.20;;;;;;;;;;4937029;29;20073;-78
2023/01/12 16:21:36;;;;;;;8.80;4.30;;;;;;;;;;4937389;29;20094;-78
2023/01/12 16:24:06;;;;;;;9.17;4.60;;;;;;;;;;4908667;29;21016;-78
2023/01/12 16:26:37;;;;;;;10.67;4.27;;;;;;;;;;4943517;29;20031;-78
2023/01/12 16:29:08;;;;;;;10.00;4.10;;;;;;;;;;4912064;29;20060;-78
2023/01/12 16:31:37;;;;;;;9.83;4.00;;;;;;;;;;4976082;28;20121;-79
2023/01/12 16:34:06;;;;;;;8.77;3.87;;;;;;;;;;4931580;28;20066;-79
2023/01/12 16:36:34;;;;;;;10.83;3.97;;;;;;;;;;4930444;28;20073;-78
2023/01/12 16:39:14;;;;;;;8.00;3.77;;;;;;;;;;4962662;28;20066;-77
2023/01/12 16:42:03;;;;;;;10.27;4.10;;;;;;;;;;4980085;28;20057;-78